Time;durP1;ratioP1;P1;durP2;ratioP2;P2;SDS_P1;SDS_P2;PMS_P1;PMS_P2;Temp;Humidity;BMP_temperature;BMP_pressure;BME280_temperature;BME280_humidity;BME280_pressure;Samples;Min_cycle;Max_cycle;Signal;HPM_P1;HPM_P2
2022/01/11 00:01:26;;;;;;;;;;;0.20;99.90;;;;;;4992612;28;19918;-80
2022/01/11 00:03:53;;;;;;;;;;;0.10;99.90;;;;;;5016110;28;19967;-80
2022/01/11 00:08:51;;;;;;;;;;;0.20;99.90;;;;;;5016394;28;19924;-80
2022/01/11 00:11:16;;;;;;;;;;;0.10;99.90;;;;;;5016837;28;19914;-80
2022/01/11 00:13:42;;;;;;;;;;;0.10;1.00;;;;;;5014216;28;19922;-79
2022/01/11 00:16:08;;;;;;;;;;;0.00;1.00;;;;;;5030591;23;19932;-82
2022/01/11 00:18:34;;;;;;;;;;;0.00;1.00;;;;;;5015125;28;20582;-80
2022/01/11 00:21:00;;;;;;;;;;;0.00;1.00;;;;;;4998327;28;19920;-82
2022/01/11 00:25:53;;;;;;;;;;;0.10;1.00;;;;;;5015109;28;19910;-81
2022/01/11 00:28:19;;;;;;;;;;;0.10;1.00;;;;;;4995618;28;19918;-80
2022/01/11 00:30:46;;;;;;;;;;;0.20;1.00;;;;;;4998841;28;20000;-81
2022/01/11 00:33:16;;;;;;;;;;;0.30;1.00;;;;;;5003261;28;19914;-80
2022/01/11 00:35:56;;;;;;;;;;;0.40;1.00;;;;;;5012658;28;19909;-81
2022/01/11 00:38:23;;;;;;;;;;;0.40;1.00;;;;;;5014501;28;19936;-82
2022/01/11 00:40:49;;;;;;;;;;;0.30;1.00;;;;;;5014572;28;19921;-81
2022/01/11 00:43:19;;;;;;;;;;;0.20;1.00;;;;;;5014827;28;19920;-81
2022/01/11 00:45:45;;;;;;;;;;;0.10;1.00;;;;;;5014061;28;19941;-81
2022/01/11 00:48:10;;;;;;;;;;;0.00;1.00;;;;;;5011856;28;19941;-80
2022/01/11 00:50:37;;;;;;;;;;;0.00;1.00;;;;;;4996771;28;19909;-81
2022/01/11 00:53:06;;;;;;;;;;;-0.10;1.00;;;;;;5013382;28;19913;-82
2022/01/11 00:55:32;;;;;;;;;;;-0.10;1.00;;;;;;5015332;28;19914;-81
2022/01/11 00:57:57;;;;;;;;;;;-0.10;1.00;;;;;;5010450;28;19984;-83
2022/01/11 01:00:23;;;;;;;;;;;-0.10;1.00;;;;;;5014504;28;19917;-82
2022/01/11 01:02:48;;;;;;;;;;;-0.20;1.00;;;;;;4998473;28;19944;-81
2022/01/11 01:05:17;;;;;;;;;;;-0.10;1.00;;;;;;5012779;28;19965;-82
2022/01/11 01:07:43;;;;;;;;;;;-0.10;1.00;;;;;;5014643;28;19913;-80
2022/01/11 01:10:19;;;;;;;;;;;-0.10;1.00;;;;;;4995487;28;19921;-80
2022/01/11 01:12:44;;;;;;;;;;;0.00;1.00;;;;;;5014867;28;19909;-81
2022/01/11 01:15:10;;;;;;;;;;;0.00;1.00;;;;;;5015161;28;20395;-81
2022/01/11 01:17:35;;;;;;;;;;;0.00;1.00;;;;;;5005255;28;19924;-80
2022/01/11 01:20:01;;;;;;;;;;;0.10;1.00;;;;;;4987422;28;20012;-80
2022/01/11 01:22:26;;;;;;;;;;;0.10;1.00;;;;;;5013892;28;19996;-82
2022/01/11 01:24:52;;;;;;;;;;;0.00;1.00;;;;;;5014576;28;19932;-80
2022/01/11 01:27:17;;;;;;;;;;;-0.10;1.00;;;;;;4994977;28;19913;-82
2022/01/11 01:29:43;;;;;;;;;;;-0.10;1.00;;;;;;5015545;28;19910;-81
2022/01/11 01:32:08;;;;;;;;;;;-0.10;1.00;;;;;;5013699;28;19913;-80
2022/01/11 01:34:34;;;;;;;;;;;-0.10;1.00;;;;;;5014708;28;19916;-79
2022/01/11 01:37:00;;;;;;;;;;;-0.20;1.00;;;;;;5014722;28;19913;-81
2022/01/11 01:39:25;;;;;;;;;;;-0.20;1.00;;;;;;5015244;28;19909;-80
2022/01/11 01:41:51;;;;;;;;;;;-0.20;1.00;;;;;;5012913;28;19917;-80
2022/01/11 01:44:16;;;;;;;;;;;-0.20;1.00;;;;;;5014464;28;19952;-80
2022/01/11 01:46:42;;;;;;;;;;;-0.10;1.00;;;;;;5013462;28;20296;-84
2022/01/11 01:49:10;;;;;;;;;;;0.00;1.00;;;;;;5005235;28;19945;-80
2022/01/11 01:51:35;;;;;;;;;;;-0.10;1.00;;;;;;5014061;28;19933;-80
2022/01/11 01:54:01;;;;;;;;;;;-0.10;1.00;;;;;;5015071;28;19910;-80
2022/01/11 01:56:27;;;;;;;;;;;-0.10;1.00;;;;;;5013196;28;19917;-82
2022/01/11 01:58:53;;;;;;;;;;;-0.20;1.00;;;;;;5014986;28;19917;-81
2022/01/11 02:01:20;;;;;;;;;;;-0.20;1.00;;;;;;4994959;28;19917;-82
2022/01/11 02:03:46;;;;;;;;;;;-0.20;1.00;;;;;;5016292;28;19909;-80
2022/01/11 02:06:13;;;;;;;;;;;-0.30;1.00;;;;;;5017140;28;19913;-80
2022/01/11 02:08:39;;;;;;;;;;;-0.30;1.00;;;;;;5018190;28;19913;-82
2022/01/11 02:11:06;;;;;;;;;;;-0.30;1.00;;;;;;5016417;28;19920;-80
2022/01/11 02:13:31;;;;;;;;;;;-0.40;1.00;;;;;;5018160;28;20297;-83
2022/01/11 02:15:57;;;;;;;;;;;-0.40;1.00;;;;;;4999485;28;19924;-79
2022/01/11 02:18:25;;;;;;;;;;;-0.40;1.00;;;;;;5017787;28;19913;-80
2022/01/11 02:20:51;;;;;;;;;;;-0.30;1.00;;;;;;5016239;28;20024;-81
2022/01/11 02:23:17;;;;;;;;;;;-0.30;1.00;;;;;;5017134;28;19984;-81
2022/01/11 02:25:43;;;;;;;;;;;-0.30;1.00;;;;;;5016197;28;19917;-79
2022/01/11 02:28:10;;;;;;;;;;;-0.30;1.00;;;;;;5017471;28;19972;-82
2022/01/11 02:30:35;;;;;;;;;;;-0.20;1.00;;;;;;5016870;28;19913;-80
2022/01/11 02:33:04;;;;;;;;;;;-0.20;1.00;;;;;;5016816;28;19910;-80
2022/01/11 02:35:29;;;;;;;;;;;-0.20;1.00;;;;;;5016367;28;19973;-79
2022/01/11 02:37:55;;;;;;;;;;;-0.30;1.00;;;;;;5003665;28;19945;-81
2022/01/11 02:40:21;;;;;;;;;;;-0.30;1.00;;;;;;4999153;28;20004;-81
2022/01/11 02:42:46;;;;;;;;;;;-0.40;1.00;;;;;;5016542;28;20106;-80
2022/01/11 02:45:13;;;;;;;;;;;-0.40;1.00;;;;;;5012817;28;19929;-80
2022/01/11 02:47:39;;;;;;;;;;;-0.40;1.00;;;;;;5016786;28;19929;-80
2022/01/11 02:50:04;;;;;;;;;;;-0.40;1.00;;;;;;5012349;28;19914;-79
2022/01/11 02:52:30;;;;;;;;;;;-0.30;1.00;;;;;;5016418;28;19923;-83
2022/01/11 02:54:55;;;;;;;;;;;-0.20;1.00;;;;;;5015833;28;19920;-81
2022/01/11 02:57:21;;;;;;;;;;;-0.10;1.00;;;;;;5016676;28;20424;-82
2022/01/11 02:59:46;;;;;;;;;;;0.00;1.00;;;;;;5016794;28;19922;-83
2022/01/11 03:02:11;;;;;;;;;;;0.10;1.00;;;;;;5012809;28;19937;-82
2022/01/11 03:04:37;;;;;;;;;;;0.10;1.00;;;;;;4998551;28;19914;-80
2022/01/11 03:07:02;;;;;;;;;;;0.20;1.00;;;;;;4999852;28;19936;-82
2022/01/11 03:09:34;;;;;;;;;;;0.30;1.00;;;;;;4999380;28;20514;-82
2022/01/11 03:11:59;;;;;;;;;;;0.40;1.00;;;;;;5015839;28;19913;-80
2022/01/11 03:14:25;;;;;;;;;;;0.40;1.00;;;;;;5016782;28;19916;-82
2022/01/11 03:16:50;;;;;;;;;;;0.50;1.00;;;;;;5015785;28;19975;-81
2022/01/11 03:19:16;;;;;;;;;;;0.50;1.00;;;;;;5017036;28;19916;-80
2022/01/11 03:21:41;;;;;;;;;;;0.30;1.00;;;;;;5015512;28;19918;-81
2022/01/11 03:24:07;;;;;;;;;;;0.20;1.00;;;;;;5015661;28;20385;-81
2022/01/11 03:26:32;;;;;;;;;;;0.20;1.00;;;;;;5019062;28;20416;-82
2022/01/11 03:28:57;;;;;;;;;;;0.10;1.00;;;;;;5003028;28;19914;-79
2022/01/11 03:31:24;;;;;;;;;;;0.10;1.00;;;;;;5016216;28;20301;-81
2022/01/11 03:33:50;;;;;;;;;;;0.10;1.00;;;;;;4997781;28;19914;-83
2022/01/11 03:36:16;;;;;;;;;;;0.20;1.00;;;;;;5015494;28;20395;-81
2022/01/11 03:38:41;;;;;;;;;;;0.10;1.00;;;;;;5016949;28;19917;-81
2022/01/11 03:41:07;;;;;;;;;;;0.10;1.00;;;;;;5014779;28;20419;-79
2022/01/11 03:43:32;;;;;;;;;;;0.00;1.00;;;;;;5016010;28;19976;-80
2022/01/11 03:45:58;;;;;;;;;;;0.00;1.00;;;;;;4997796;28;19914;-80
2022/01/11 03:48:23;;;;;;;;;;;0.10;1.00;;;;;;5006197;28;19960;-80
2022/01/11 03:50:53;;;;;;;;;;;0.00;1.00;;;;;;5014089;28;19914;-81
2022/01/11 03:53:20;;;;;;;;;;;-0.10;1.00;;;;;;5007902;28;19957;-79
2022/01/11 03:58:17;;;;;;;;;;;-0.20;1.00;;;;;;5015522;28;19917;-79
2022/01/11 04:00:43;;;;;;;;;;;-0.30;1.00;;;;;;4996412;28;19928;-80
2022/01/11 04:03:09;;;;;;;;;;;-0.30;1.00;;;;;;5014735;28;19993;-80
2022/01/11 04:05:35;;;;;;;;;;;-0.30;1.00;;;;;;5014130;28;19946;-82
2022/01/11 04:08:00;;;;;;;;;;;-0.40;1.00;;;;;;5003092;28;20025;-84
2022/01/11 04:10:26;;;;;;;;;;;-0.30;1.00;;;;;;5015920;28;19910;-81
2022/01/11 04:12:52;;;;;;;;;;;-0.20;1.00;;;;;;5000909;28;19921;-82
2022/01/11 04:15:18;;;;;;;;;;;-0.10;1.00;;;;;;5014633;28;20321;-80
2022/01/11 04:17:43;;;;;;;;;;;-0.10;1.00;;;;;;5014792;28;19921;-81
2022/01/11 04:20:09;;;;;;;;;;;-0.10;1.00;;;;;;4995531;28;20141;-79
2022/01/11 04:22:35;;;;;;;;;;;-0.10;1.00;;;;;;5013704;28;19913;-80
2022/01/11 04:25:00;;;;;;;;;;;0.00;1.00;;;;;;5013877;28;19909;-80
2022/01/11 04:27:26;;;;;;;;;;;0.10;1.00;;;;;;4997443;28;19992;-81
2022/01/11 04:29:51;;;;;;;;;;;0.00;1.00;;;;;;5014853;28;20001;-80
2022/01/11 04:32:17;;;;;;;;;;;-0.10;1.00;;;;;;5014487;28;20333;-81
2022/01/11 04:34:42;;;;;;;;;;;-0.10;1.00;;;;;;4994338;28;19921;-80
2022/01/11 04:37:07;;;;;;;;;;;-0.20;1.00;;;;;;5014668;28;19977;-80
2022/01/11 04:39:33;;;;;;;;;;;-0.30;1.00;;;;;;4998056;28;20358;-82
2022/01/11 04:41:59;;;;;;;;;;;-0.30;1.00;;;;;;5014229;28;20000;-80
2022/01/11 04:44:24;;;;;;;;;;;-0.30;1.00;;;;;;4997169;28;19910;-79
2022/01/11 04:46:50;;;;;;;;;;;-0.30;1.00;;;;;;5014361;28;20337;-81
2022/01/11 04:49:15;;;;;;;;;;;-0.20;1.00;;;;;;5015761;28;19960;-80
2022/01/11 04:51:41;;;;;;;;;;;-0.30;1.00;;;;;;5011211;28;19914;-79
2022/01/11 04:54:07;;;;;;;;;;;-0.40;1.00;;;;;;5014276;28;19997;-81
2022/01/11 04:56:32;;;;;;;;;;;-0.40;1.00;;;;;;5014271;28;19914;-83
2022/01/11 04:58:58;;;;;;;;;;;-0.40;1.00;;;;;;5015050;28;19916;-81
2022/01/11 05:01:24;;;;;;;;;;;-0.30;1.00;;;;;;5005440;28;19914;-80
2022/01/11 05:03:50;;;;;;;;;;;-0.30;1.00;;;;;;5014129;28;20298;-79
2022/01/11 05:06:15;;;;;;;;;;;-0.30;1.00;;;;;;5004713;28;20433;-81
2022/01/11 05:08:42;;;;;;;;;;;-0.50;1.00;;;;;;5015250;28;20432;-80
2022/01/11 05:11:08;;;;;;;;;;;-0.60;1.00;;;;;;5014560;28;19925;-82
2022/01/11 05:13:34;;;;;;;;;;;-0.60;1.00;;;;;;5014254;28;19917;-80
2022/01/11 05:16:02;;;;;;;;;;;-0.50;1.00;;;;;;5015193;28;19913;-81
2022/01/11 05:18:29;;;;;;;;;;;-0.40;1.00;;;;;;5014314;28;20004;-83
2022/01/11 05:20:54;;;;;;;;;;;-0.40;1.00;;;;;;5014591;28;19924;-78
2022/01/11 05:23:20;;;;;;;;;;;-0.40;1.00;;;;;;5004926;28;19914;-82
2022/01/11 05:25:45;;;;;;;;;;;-0.50;1.00;;;;;;5015959;28;19913;-80
2022/01/11 05:28:11;;;;;;;;;;;-0.60;1.00;;;;;;5014341;28;19913;-80
2022/01/11 05:30:36;;;;;;;;;;;-0.60;1.00;;;;;;5016000;28;20004;-82
2022/01/11 05:33:02;;;;;;;;;;;-0.60;1.00;;;;;;5016004;28;19920;-82
2022/01/11 05:35:27;;;;;;;;;;;-0.70;1.00;;;;;;5014451;28;19935;-79
2022/01/11 05:37:53;;;;;;;;;;;-0.70;1.00;;;;;;5014593;28;20324;-82
2022/01/11 05:40:19;;;;;;;;;;;-0.70;1.00;;;;;;5018815;28;19917;-82
2022/01/11 05:42:46;;;;;;;;;;;-0.60;1.00;;;;;;5004731;28;20041;-81
2022/01/11 05:45:12;;;;;;;;;;;-0.60;1.00;;;;;;5019060;28;19976;-83
2022/01/11 05:47:37;;;;;;;;;;;-0.60;1.00;;;;;;5017656;28;19913;-82
2022/01/11 05:50:04;;;;;;;;;;;-0.70;1.00;;;;;;5018677;28;19963;-80
2022/01/11 05:52:30;;;;;;;;;;;-0.70;1.00;;;;;;5017332;28;19971;-81
2022/01/11 05:54:55;;;;;;;;;;;-0.80;1.00;;;;;;5018095;28;19914;-81
2022/01/11 05:57:20;;;;;;;;;;;-0.70;1.00;;;;;;5018784;28;19913;-80
2022/01/11 05:59:46;;;;;;;;;;;-0.70;1.00;;;;;;5022629;28;19914;-82
2022/01/11 06:02:11;;;;;;;;;;;-0.60;1.00;;;;;;5017381;28;20021;-81
2022/01/11 06:04:37;;;;;;;;;;;-0.70;1.00;;;;;;5017120;28;19913;-81
2022/01/11 06:07:02;;;;;;;;;;;-0.70;1.00;;;;;;5018669;28;19915;-81
2022/01/11 06:09:28;;;;;;;;;;;-0.80;1.00;;;;;;4996565;28;20297;-81
2022/01/11 06:11:54;;;;;;;;;;;-0.80;1.00;;;;;;5007351;28;20004;-79
2022/01/11 06:14:20;;;;;;;;;;;-0.80;1.00;;;;;;5015687;28;19924;-81
2022/01/11 06:16:45;;;;;;;;;;;-0.80;1.00;;;;;;5046695;23;20388;-81
2022/01/11 06:19:11;;;;;;;;;;;-0.90;1.00;;;;;;5078700;28;19920;-82
2022/01/11 06:21:36;;;;;;;;;;;-0.90;1.00;;;;;;5078181;28;20317;-83
2022/01/11 06:24:02;;;;;;;;;;;-0.80;1.00;;;;;;5077864;28;19917;-81
2022/01/11 06:26:28;;;;;;;;;;;-0.80;1.00;;;;;;5073138;28;19912;-81
2022/01/11 06:28:56;;;;;;;;;;;-0.80;1.00;;;;;;5078370;28;20000;-82
2022/01/11 06:31:22;;;;;;;;;;;-0.90;1.00;;;;;;5077554;28;19970;-81
2022/01/11 06:33:47;;;;;;;;;;;-1.00;1.00;;;;;;5074379;28;19912;-81
2022/01/11 06:36:13;;;;;;;;;;;-1.00;1.00;;;;;;5076999;28;19958;-81
2022/01/11 06:38:39;;;;;;;;;;;-1.10;1.00;;;;;;5076313;28;19912;-81
2022/01/11 06:41:05;;;;;;;;;;;-0.90;1.00;;;;;;5076433;28;19983;-81
2022/01/11 06:43:30;;;;;;;;;;;-0.90;1.00;;;;;;5054059;28;19912;-81
2022/01/11 06:45:56;;;;;;;;;;;-0.90;1.00;;;;;;5076091;28;19912;-81
2022/01/11 06:48:21;;;;;;;;;;;-0.90;1.00;;;;;;5074185;28;20050;-81
2022/01/11 06:50:47;;;;;;;;;;;-0.80;1.00;;;;;;5076882;28;19917;-81
2022/01/11 06:53:12;;;;;;;;;;;-0.80;1.00;;;;;;5074536;28;19920;-81
2022/01/11 06:55:38;;;;;;;;;;;-0.90;1.00;;;;;;5075845;28;19912;-81
2022/01/11 06:58:03;;;;;;;;;;;-0.90;1.00;;;;;;5056653;28;20367;-81
2022/01/11 07:00:29;;;;;;;;;;;-0.90;1.00;;;;;;5076470;28;19974;-82
2022/01/11 07:02:55;;;;;;;;;;;-1.00;1.00;;;;;;5056217;28;20343;-81
2022/01/11 07:05:20;;;;;;;;;;;-1.00;1.00;;;;;;5074929;28;19916;-81
2022/01/11 07:07:46;;;;;;;;;;;-1.00;1.00;;;;;;5076228;28;19995;-81
2022/01/11 07:10:11;;;;;;;;;;;-1.00;1.00;;;;;;5078066;28;19927;-81
2022/01/11 07:12:37;;;;;;;;;;;-0.90;1.00;;;;;;5057220;28;19961;-81
2022/01/11 07:15:03;;;;;;;;;;;-0.80;1.00;;;;;;5074319;28;19923;-81
2022/01/11 07:17:29;;;;;;;;;;;-0.60;1.00;;;;;;5079737;28;20338;-84
2022/01/11 07:19:54;;;;;;;;;;;-0.60;1.00;;;;;;5078542;28;19998;-83
2022/01/11 07:22:19;;;;;;;;;;;-0.60;1.00;;;;;;5077936;28;20304;-82
2022/01/11 07:24:45;;;;;;;;;;;-0.50;1.00;;;;;;5078854;28;19958;-81
2022/01/11 07:27:11;;;;;;;;;;;-0.50;1.00;;;;;;5077654;28;19918;-81
2022/01/11 07:29:36;;;;;;;;;;;-0.50;1.00;;;;;;5078054;28;19916;-82
2022/01/11 07:32:02;;;;;;;;;;;-0.40;1.00;;;;;;5074895;28;20457;-82
2022/01/11 07:34:27;;;;;;;;;;;-0.40;1.00;;;;;;5078854;28;20336;-82
2022/01/11 07:36:53;;;;;;;;;;;-0.30;1.00;;;;;;5059396;28;20293;-82
2022/01/11 07:39:19;;;;;;;;;;;-0.30;1.00;;;;;;5079678;28;19915;-82
2022/01/11 07:41:44;;;;;;;;;;;-0.30;1.00;;;;;;5077122;28;19928;-82
2022/01/11 07:44:09;;;;;;;;;;;-0.30;1.00;;;;;;5078137;28;19995;-83
2022/01/11 07:46:36;;;;;;;;;;;-0.40;1.00;;;;;;5060029;28;19916;-80
2022/01/11 07:49:02;;;;;;;;;;;-0.40;1.00;;;;;;5073042;28;19920;-82
2022/01/11 07:51:29;;;;;;;;;;;-0.40;1.00;;;;;;5076813;28;19919;-81
2022/01/11 07:53:54;;;;;;;;;;;-0.40;1.00;;;;;;5076594;28;20372;-81
2022/01/11 07:56:20;;;;;;;;;;;-0.40;1.00;;;;;;5077474;28;19964;-82
2022/01/11 07:58:45;;;;;;;;;;;-0.40;1.00;;;;;;5074464;28;20414;-81
2022/01/11 08:01:11;;;;;;;;;;;-0.40;1.00;;;;;;5056530;28;19920;-81
2022/01/11 08:03:37;;;;;;;;;;;-0.40;1.00;;;;;;5077419;28;19995;-81
2022/01/11 08:06:02;;;;;;;;;;;-0.40;1.00;;;;;;5082901;28;19913;-82
2022/01/11 08:08:28;;;;;;;;;;;-0.50;1.00;;;;;;5078624;28;20392;-81
2022/01/11 08:10:55;;;;;;;;;;;-0.40;1.00;;;;;;5077648;28;19919;-81
2022/01/11 08:13:22;;;;;;;;;;;-0.30;1.00;;;;;;5076052;28;19913;-81
2022/01/11 08:15:47;;;;;;;;;;;-0.30;1.00;;;;;;5072543;28;19912;-80
2022/01/11 08:18:13;;;;;;;;;;;-0.20;1.00;;;;;;5076396;28;19923;-81
2022/01/11 08:20:39;;;;;;;;;;;-0.10;1.00;;;;;;5075613;28;19916;-81
2022/01/11 08:23:04;;;;;;;;;;;-0.20;1.00;;;;;;5075149;28;19958;-81
2022/01/11 08:25:29;;;;;;;;;;;-0.10;1.00;;;;;;5058347;28;19920;-81
2022/01/11 08:27:55;;;;;;;;;;;-0.10;1.00;;;;;;5075810;28;19912;-81
2022/01/11 08:30:21;;;;;;;;;;;0.10;1.00;;;;;;5077850;28;19947;-81
2022/01/11 08:32:46;;;;;;;;;;;0.30;1.00;;;;;;5072671;28;20392;-81
2022/01/11 08:35:12;;;;;;;;;;;0.40;1.00;;;;;;5073112;28;19920;-81
2022/01/11 08:37:37;;;;;;;;;;;0.40;1.00;;;;;;5075737;28;20380;-81
2022/01/11 08:40:04;;;;;;;;;;;0.50;1.00;;;;;;5075308;28;20011;-81
2022/01/11 08:42:29;;;;;;;;;;;0.40;1.00;;;;;;5075710;28;19921;-81
2022/01/11 08:44:55;;;;;;;;;;;0.50;1.00;;;;;;5059148;28;19918;-81
2022/01/11 08:47:21;;;;;;;;;;;0.60;1.00;;;;;;5078052;28;20062;-80
2022/01/11 08:49:47;;;;;;;;;;;0.70;99.90;;;;;;5076905;28;19919;-80
2022/01/11 08:52:12;;;;;;;;;;;0.70;99.90;;;;;;5059661;28;19916;-81
2022/01/11 08:54:38;;;;;;;;;;;0.70;99.90;;;;;;5076585;28;19914;-81
2022/01/11 08:57:04;;;;;;;;;;;0.80;99.90;;;;;;5075814;28;19951;-83
2022/01/11 08:59:30;;;;;;;;;;;1.00;99.90;;;;;;5058947;28;19974;-80
2022/01/11 09:01:57;;;;;;;;;;;1.20;99.90;;;;;;5076226;28;19938;-81
2022/01/11 09:04:23;;;;;;;;;;;1.40;1.00;;;;;;5045281;28;19919;-81
2022/01/11 09:06:50;;;;;;;;;;;1.80;1.00;;;;;;5069851;28;19944;-81
2022/01/11 09:09:16;;;;;;;;;;;2.00;56.10;;;;;;5073278;28;19919;-81
2022/01/11 09:11:42;;;;;;;;;;;2.30;1.00;;;;;;5073596;28;20396;-80
2022/01/11 09:14:08;;;;;;;;;;;2.60;99.90;;;;;;5075406;28;20046;-80
2022/01/11 09:16:34;;;;;;;;;;;2.90;1.00;;;;;;5070841;28;19912;-81
2022/01/11 09:18:59;;;;;;;;;;;3.20;99.90;;;;;;5058339;28;19912;-80
2022/01/11 09:21:25;;;;;;;;;;;3.50;1.00;;;;;;5058569;28;19965;-81
2022/01/11 09:23:51;;;;;;;;;;;3.60;1.00;;;;;;5062048;28;19951;-80
2022/01/11 09:26:16;;;;;;;;;;;3.60;99.90;;;;;;5069091;28;20355;-80
2022/01/11 09:28:42;;;;;;;;;;;3.60;99.90;;;;;;5053974;28;19913;-80
2022/01/11 09:31:07;;;;;;;;;;;3.60;99.90;;;;;;5069743;28;19987;-80
2022/01/11 09:33:33;;;;;;;;;;;3.70;99.90;;;;;;5070036;28;19919;-80
2022/01/11 09:35:59;;;;;;;;;;;3.60;99.90;;;;;;5067712;28;20003;-80
2022/01/11 09:38:24;;;;;;;;;;;3.60;99.90;;;;;;5051143;28;19919;-80
2022/01/11 09:40:52;;;;;;;;;;;3.70;94.50;;;;;;5068146;28;19972;-79
2022/01/11 09:43:20;;;;;;;;;;;3.70;98.50;;;;;;5068259;28;19966;-78
2022/01/11 09:45:46;;;;;;;;;;;3.60;40.60;;;;;;5054184;28;20399;-78
2022/01/11 09:48:12;;;;;;;;;;;3.60;38.80;;;;;;5070848;28;19909;-78
2022/01/11 09:50:37;;;;;;;;;;;3.70;99.90;;;;;;5072700;28;19912;-77
2022/01/11 09:53:03;;;;;;;;;;;3.90;99.90;;;;;;5069753;28;20323;-77
2022/01/11 09:55:29;;;;;;;;;;;3.90;91.50;;;;;;5071125;28;20376;-79
2022/01/11 09:57:54;;;;;;;;;;;4.00;99.90;;;;;;5067679;28;19916;-78
2022/01/11 10:00:20;;;;;;;;;;;4.00;10.00;;;;;;5069896;28;19920;-78
2022/01/11 10:02:46;;;;;;;;;;;3.90;5.30;;;;;;5072644;28;19995;-81
2022/01/11 10:05:12;;;;;;;;;;;4.10;94.20;;;;;;5067798;28;19913;-80
2022/01/11 10:07:40;;;;;;;;;;;4.20;67.40;;;;;;5072697;28;19916;-78
2022/01/11 10:10:13;;;;;;;;;;;4.20;1.00;;;;;;5073757;28;19908;-78
2022/01/11 10:12:43;;;;;;;;;;;4.20;1.00;;;;;;5073482;28;19917;-79
2022/01/11 10:15:09;;;;;;;;;;;4.10;1.00;;;;;;5072648;28;20296;-79
2022/01/11 10:17:39;;;;;;;;;;;4.10;1.00;;;;;;5064170;28;19917;-79
2022/01/11 10:20:07;;;;;;;;;;;4.00;1.00;;;;;;5075360;28;19916;-78
2022/01/11 10:22:33;;;;;;;;;;;4.10;1.00;;;;;;5070955;28;19912;-81
2022/01/11 10:25:00;;;;;;;;;;;4.30;1.00;;;;;;5077150;28;19908;-81
2022/01/11 10:27:30;;;;;;;;;;;4.30;1.00;;;;;;5080500;28;19908;-81
2022/01/11 10:29:57;;;;;;;;;;;4.30;1.00;;;;;;5078357;28;20428;-81
2022/01/11 10:32:26;;;;;;;;;;;4.30;1.00;;;;;;5076244;28;19912;-81
2022/01/11 10:34:53;;;;;;;;;;;4.30;1.00;;;;;;5072214;28;19983;-81
2022/01/11 10:37:27;;;;;;;;;;;4.30;1.00;;;;;;5077016;28;19913;-81
2022/01/11 10:39:59;;;;;;;;;;;4.20;1.00;;;;;;5079879;28;19955;-81
2022/01/11 10:42:26;;;;;;;;;;;4.10;1.00;;;;;;5080913;28;19916;-81
2022/01/11 10:44:53;;;;;;;;;;;4.10;1.00;;;;;;5077641;28;19916;-81
2022/01/11 10:47:22;;;;;;;;;;;4.10;1.00;;;;;;5078984;28;19920;-81
2022/01/11 10:49:49;;;;;;;;;;;4.20;1.00;;;;;;5080271;28;19919;-82
2022/01/11 10:52:19;;;;;;;;;;;4.40;1.00;;;;;;5059838;28;19955;-81
2022/01/11 10:54:44;;;;;;;;;;;4.40;1.00;;;;;;5080622;28;20280;-82
2022/01/11 10:57:17;;;;;;;;;;;4.40;1.00;;;;;;5077190;28;19913;-81
2022/01/11 10:59:42;;;;;;;;;;;4.40;1.00;;;;;;5079928;28;19912;-81
2022/01/11 11:02:12;;;;;;;;;;;4.40;1.00;;;;;;5059532;28;19969;-81
2022/01/11 11:04:38;;;;;;;;;;;4.40;1.00;;;;;;5077061;28;19999;-81
2022/01/11 11:07:14;;;;;;;;;;;4.40;1.00;;;;;;5078614;28;20434;-81
2022/01/11 11:09:43;;;;;;;;;;;4.30;1.00;;;;;;5076457;28;19912;-80
2022/01/11 11:12:12;;;;;;;;;;;4.20;1.00;;;;;;5053290;28;19913;-81
2022/01/11 11:14:56;;;;;;;;;;;4.30;1.00;;;;;;5075800;28;19997;-81
2022/01/11 11:17:33;;;;;;;;;;;4.30;1.00;;;;;;5064861;28;19917;-81
2022/01/11 11:20:06;;;;;;;;;;;4.50;1.00;;;;;;5075978;28;19913;-80
2022/01/11 11:22:32;;;;;;;;;;;4.50;1.00;;;;;;5075783;28;19961;-81
2022/01/11 11:24:58;;;;;;;;;;;4.50;1.00;;;;;;5076054;28;20365;-81
2022/01/11 11:27:24;;;;;;;;;;;4.60;1.00;;;;;;5072756;28;19998;-80
2022/01/11 11:29:50;;;;;;;;;;;4.70;1.00;;;;;;5076460;28;20388;-80
2022/01/11 11:32:20;;;;;;;;;;;5.20;1.00;;;;;;5073498;28;19920;-81
2022/01/11 11:34:49;;;;;;;;;;;6.30;1.00;;;;;;5078310;28;20338;-81
2022/01/11 11:37:38;;;;;;;;;;;7.50;35.00;;;;;;5078405;28;20434;-81
2022/01/11 11:40:06;;;;;;;;;;;8.70;1.00;;;;;;5055606;28;19913;-81
2022/01/11 11:42:32;;;;;;;;;;;10.30;1.00;;;;;;5060392;28;19913;-81
2022/01/11 11:44:58;;;;;;;;;;;11.00;1.00;;;;;;5051977;28;20365;-81
2022/01/11 11:47:30;;;;;;;;;;;11.70;1.00;;;;;;5077924;28;19967;-79
2022/01/11 11:49:56;;;;;;;;;;;12.20;1.00;;;;;;5076548;28;20292;-79
2022/01/11 11:52:24;;;;;;;;;;;12.00;1.00;;;;;;5075084;28;19923;-78
2022/01/11 11:54:54;;;;;;;;;;;12.00;1.00;;;;;;5076876;28;19919;-79
2022/01/11 11:57:24;;;;;;;;;;;12.60;1.00;;;;;;5058829;28;19912;-79
2022/01/11 11:59:51;;;;;;;;;;;12.90;1.00;;;;;;5076559;28;20380;-79
2022/01/11 12:02:30;;;;;;;;;;;13.30;1.00;;;;;;5075836;28;19942;-79
2022/01/11 12:04:55;;;;;;;;;;;13.80;1.00;;;;;;5076466;28;19909;-79
2022/01/11 12:07:32;;;;;;;;;;;13.60;1.00;;;;;;5076384;28;20003;-78
2022/01/11 12:09:58;;;;;;;;;;;13.20;1.00;;;;;;5075987;28;19935;-79
2022/01/11 12:12:43;;;;;;;;;;;12.80;1.00;;;;;;5057922;28;19908;-79
2022/01/11 12:15:38;;;;;;;;;;;12.10;1.00;;;;;;5076665;28;19912;-79
2022/01/11 12:18:04;;;;;;;;;;;11.60;1.00;;;;;;5096565;22;19925;-79
2022/01/11 12:20:48;;;;;;;;;;;11.50;1.00;;;;;;5058485;28;20293;-79
2022/01/11 12:23:38;;;;;;;;;;;11.80;1.00;;;;;;5038132;28;19947;-79
2022/01/11 12:26:10;;;;;;;;;;;11.70;1.00;;;;;;5047528;28;19919;-80
2022/01/11 12:28:35;;;;;;;;;;;11.40;1.00;;;;;;5056463;28;19935;-79
2022/01/11 12:31:19;;;;;;;;;;;11.60;1.00;;;;;;5056782;28;19909;-79
2022/01/11 12:33:48;;;;;;;;;;;11.80;1.00;;;;;;5054680;28;20127;-79
2022/01/11 12:36:13;;;;;;;;;;;12.50;1.00;;;;;;5055060;28;19977;-79
2022/01/11 12:38:58;;;;;;;;;;;13.10;1.00;;;;;;5056199;28;19948;-79
2022/01/11 12:41:28;;;;;;;;;;;13.60;1.00;;;;;;5038794;28;19920;-79
2022/01/11 12:44:14;;;;;;;;;;;14.10;1.00;;;;;;5038836;28;19909;-79
2022/01/11 12:46:59;;;;;;;;;;;14.50;1.00;;;;;;5038213;28;20406;-79
2022/01/11 12:49:26;;;;;;;;;;;15.10;1.00;;;;;;5055122;28;19912;-80
2022/01/11 12:51:54;;;;;;;;;;;14.70;1.00;;;;;;5056116;28;19936;-79
2022/01/11 12:54:23;;;;;;;;;;;14.70;1.00;;;;;;5054523;28;19908;-79
2022/01/11 12:56:54;;;;;;;;;;;14.40;1.00;;;;;;5056032;28;19939;-79
2022/01/11 12:59:20;;;;;;;;;;;14.70;1.00;;;;;;5038277;28;19959;-80
2022/01/11 13:01:46;;;;;;;;;;;14.70;1.00;;;;;;5038094;28;19972;-79
2022/01/11 13:04:12;;;;;;;;;;;14.40;1.00;;;;;;5037038;28;19982;-82
2022/01/11 13:06:38;;;;;;;;;;;14.00;1.00;;;;;;5036969;28;19999;-81
2022/01/11 13:09:06;;;;;;;;;;;13.60;1.00;;;;;;5056050;28;19909;-82
2022/01/11 13:11:32;;;;;;;;;;;13.30;1.00;;;;;;5056289;28;19913;-81
2022/01/11 13:14:18;;;;;;;;;;;13.20;1.00;;;;;;5038171;28;19909;-82
2022/01/11 13:16:46;;;;;;;;;;;13.00;1.00;;;;;;5056195;28;19912;-82
2022/01/11 13:19:12;;;;;;;;;;;12.60;1.00;;;;;;5038242;28;19913;-79
2022/01/11 13:21:38;;;;;;;;;;;12.20;1.00;;;;;;5056013;28;19909;-81
2022/01/11 13:26:46;;;;;;;;;;;12.60;1.00;;;;;;5055975;28;19915;-81
2022/01/11 13:29:15;;;;;;;;;;;13.20;1.00;;;;;;5056194;28;19909;-82
2022/01/11 13:31:40;;;;;;;;;;;13.20;1.00;;;;;;5056320;28;19916;-82
2022/01/11 13:34:07;;;;;;;;;;;13.50;1.00;;;;;;5055597;28;19916;-82
2022/01/11 13:36:34;;;;;;;;;;;13.40;1.00;;;;;;5038014;28;19952;-81
2022/01/11 13:39:19;;;;;;;;;;;13.60;1.00;;;;;;5037557;28;19912;-82
2022/01/11 13:41:52;;;;;;;;;;;13.40;1.00;;;;;;5037620;28;19935;-82
2022/01/11 13:44:19;;;;;;;;;;;13.30;1.00;;;;;;5055343;28;19910;-83
2022/01/11 13:46:47;;;;;;;;;;;13.40;1.00;;;;;;5037168;28;20004;-82
2022/01/11 13:49:20;;;;;;;;;;;13.20;1.00;;;;;;5037389;28;19913;-81
2022/01/11 13:51:46;;;;;;;;;;;13.30;1.00;;;;;;5037310;28;19913;-81
2022/01/11 13:54:12;;;;;;;;;;;13.10;1.00;;;;;;5037251;28;19909;-82
2022/01/11 13:56:43;;;;;;;;;;;12.80;1.00;;;;;;5055046;28;19935;-81
2022/01/11 13:59:10;;;;;;;;;;;12.40;99.90;;;;;;5056517;28;19913;-79
2022/01/11 14:01:36;;;;;;;;;;;12.40;99.90;;;;;;5058477;28;19965;-79
2022/01/11 14:04:06;;;;;;;;;;;12.30;99.90;;;;;;5059384;28;20003;-79
2022/01/11 14:07:00;;;;;;;;;;;12.20;99.90;;;;;;5058497;28;19917;-79
2022/01/11 14:09:32;;;;;;;;;;;12.20;99.90;;;;;;5052328;28;19937;-78
2022/01/11 14:12:22;;;;;;;;;;;12.80;1.00;;;;;;5019648;28;19913;-79
2022/01/11 14:15:00;;;;;;;;;;;12.70;99.90;;;;;;5032137;28;19913;-78
2022/01/11 14:17:28;;;;;;;;;;;12.70;99.90;;;;;;5057549;28;19916;-79
2022/01/11 14:19:57;;;;;;;;;;;13.00;99.90;;;;;;5040063;28;19917;-79
2022/01/11 14:22:35;;;;;;;;;;;12.60;99.90;;;;;;5054438;28;20000;-79
2022/01/11 14:25:00;;;;;;;;;;;12.10;99.90;;;;;;5057932;28;20023;-79
2022/01/11 14:27:27;;;;;;;;;;;11.90;99.90;;;;;;5038912;28;19952;-79
2022/01/11 14:29:54;;;;;;;;;;;11.50;99.90;;;;;;5056643;28;20325;-79
2022/01/11 14:32:20;;;;;;;;;;;11.60;99.90;;;;;;5056964;28;19917;-78
2022/01/11 14:34:56;;;;;;;;;;;12.00;99.90;;;;;;5058257;28;19913;-78
2022/01/11 14:37:22;;;;;;;;;;;11.60;99.90;;;;;;5058011;28;19970;-78
2022/01/11 14:39:48;;;;;;;;;;;11.10;99.90;;;;;;5054288;28;19936;-79
2022/01/11 14:42:24;;;;;;;;;;;11.00;99.90;;;;;;5039276;28;19913;-78
2022/01/11 14:45:09;;;;;;;;;;;10.70;99.90;;;;;;5055913;28;19912;-79